^^
Monroeville - KPAMUNIC2 Historical Data
 
Daily Summary for December 06, 2022 Units:  English    Metric   Both
Daily Weekly Monthly Yearly
  Current: High: Low: Average:
Temperature: 49.8 °F 49.8 °F 34.9 °F 43.2 °F
Dew Point: 49.5 °F 49.5 °F 24.4 °F 41.9 °F
Humidity: 99% 99% 63% 95%
Wind Speed: 0.3mph 2mph 0mph 0.6mph
Wind Gust: 2mph 5.1mph - -
WindSE - - ENE
Pressure: 30.05 in 30.09 in 30.02 in -
Precipitation: 0.24 in      
 
 
Tabular Data for December 06, 2022
Time Temperature Dew Point Pressure Wind Wind Speed Wind Gust Humidity Rainfall Rate (Hourly) solar
00:04 35.8 °F 24.4 °F 30.02 in NE 0.8 mph 3.1 mph 63% 0.00 in 0 W/m2
00:09 35.8 °F 24.8 °F 30.02 in South 0.2 mph 2.2 mph 63.9% 0.00 in 0 W/m2
00:14 35.6 °F 24.7 °F 30.03 in North 0.1 mph 1.6 mph 64.2% 0.00 in 0 W/m2
00:19 35.9 °F 25.1 °F 30.03 in NNE 1.7 mph 3.8 mph 64.5% 0.00 in 0 W/m2
00:24 36 °F 25.1 °F 30.02 in NE 0.5 mph 3.1 mph 64.3% 0.00 in 0 W/m2
00:29 35.7 °F 26.2 °F 30.03 in SSE 0.5 mph 3.1 mph 68% 0.00 in 0 W/m2
00:34 35.9 °F 26.6 °F 30.03 in NNE 0.5 mph 2 mph 68.6% 0.00 in 0 W/m2
00:39 36.2 °F 26.7 °F 30.03 in ENE 0.4 mph 1.8 mph 68.3% 0.00 in 0 W/m2
00:44 36.1 °F 26.7 °F 30.03 in North 0.6 mph 2.7 mph 68.4% 0.00 in 0 W/m2
00:49 36.1 °F 27.7 °F 30.04 in SSW 0.3 mph 2.7 mph 70.9% 0.00 in 0 W/m2
00:54 35.5 °F 27.9 °F 30.04 in SE 0.2 mph 1.6 mph 73.2% 0.00 in 0 W/m2
00:59 35.1 °F 27.8 °F 30.03 in NE 0.2 mph 1.8 mph 74.2% 0.00 in 0 W/m2
01:04 35.2 °F 27.9 °F 30.04 in Calm   1.1 mph 74.7% 0.00 in 0 W/m2
01:09 35.2 °F 28.5 °F 30.04 in Calm     76.4% 0.00 in 0 W/m2
01:14 34.9 °F 28.4 °F 30.04 in Calm   1.1 mph 76.9% 0.00 in 0 W/m2
01:19 35.2 °F 28.3 °F 30.04 in NNE 0.5 mph 1.8 mph 75.8% 0.00 in 0 W/m2
01:24 35.5 °F 28.7 °F 30.05 in NE 0.9 mph 2.2 mph 75.8% 0.00 in 0 W/m2
01:29 36 °F 30.3 °F 30.04 in NNE 0.5 mph 2.2 mph 79.7% 0.02 in 0 W/m2
01:34 36.1 °F 31.3 °F 30.05 in East 0.2 mph 2.2 mph 82.6% 0.02 in 0 W/m2
01:39 36 °F 31.2 °F 30.05 in Calm   1.1 mph 82.8% 0.05 in 0 W/m2
01:44 35.3 °F 31.3 °F 30.05 in ESE 0.2 mph 1.6 mph 85.3% 0.05 in 0 W/m2
01:49 35.3 °F 31.9 °F 30.05 in ENE 1.1 mph 2.7 mph 87.3% 0.05 in 0 W/m2
01:54 35.7 °F 32.7 °F 30.05 in ENE 1.4 mph 3.1 mph 88.4% 0.02 in 0 W/m2
01:59 36 °F 33.5 °F 30.05 in NE 0.3 mph 1.6 mph 90.7% 0.02 in 0 W/m2
02:04 36.3 °F 34.1 °F 30.05 in NNE 0.8 mph 2.5 mph 91.8% 0.05 in 0 W/m2
02:09 36.6 °F 34.5 °F 30.05 in ENE 0.2 mph 2.5 mph 92.4% 0.07 in 0 W/m2
02:14 36.8 °F 35.1 °F 30.05 in NE 0.5 mph 1.8 mph 93.8% 0.12 in 0 W/m2
02:19 36.6 °F 35 °F 30.06 in Calm   1.6 mph 93.9% 0.12 in 0 W/m2
02:24 36.4 °F 34.8 °F 30.06 in ESE 0.3 mph 1.6 mph 94% 0.05 in 0 W/m2
02:29 36.4 °F 35.1 °F 30.06 in NE 0.4 mph 1.6 mph 94.9% 0.07 in 0 W/m2
02:34 36.7 °F 35.6 °F 30.05 in NE 1.4 mph 2.5 mph 96% 0.09 in 0 W/m2
02:39 37.4 °F 35.6 °F 30.05 in NNE 1.8 mph 3.4 mph 93.3% 0.07 in 0 W/m2
02:44 37.8 °F 35.5 °F 30.05 in NNE 0.8 mph 2.9 mph 91.8% 0.02 in 0 W/m2
02:49 37.8 °F 35.5 °F 30.05 in NNE 0.5 mph 2 mph 91.4% 0.00 in 0 W/m2
02:54 37.6 °F 35.8 °F 30.05 in East 0.1 mph 1.3 mph 93.2% 0.02 in 0 W/m2
02:59 37.5 °F 36.1 °F 30.05 in NNE 0.1 mph 1.6 mph 94.8% 0.02 in 0 W/m2
03:04 37.6 °F 36.3 °F 30.05 in North 0.2 mph 1.8 mph 95% 0.02 in 0 W/m2
03:09 37.4 °F 36.1 °F 30.05 in Calm     95% 0.00 in 0 W/m2
03:14 37 °F 36 °F 30.05 in Calm     96% 0.00 in 0 W/m2
03:19 37.1 °F 36.2 °F 30.04 in NNE 1.4 mph 2.5 mph 96.4% 0.00 in 0 W/m2
03:24 37.5 °F 36.2 °F 30.04 in NNE 1.3 mph 2.9 mph 94.9% 0.00 in 0 W/m2
03:29 37.9 °F 36 °F 30.05 in NE 1 mph 2.9 mph 92.4% 0.00 in 0 W/m2
03:34 38 °F 35.7 °F 30.05 in NE 1.1 mph 2.7 mph 91.1% 0.02 in 0 W/m2
03:39 38.2 °F 35.9 °F 30.04 in NNE 0.8 mph 2.7 mph 91.1% 0.02 in 0 W/m2
03:44 38.4 °F 35.5 °F 30.05 in ENE 1.3 mph 3.6 mph 89.1% 0.00 in 0 W/m2
03:49 38.4 °F 36 °F 30.05 in NNE 0.1 mph 2.5 mph 91% 0.00 in 0 W/m2
03:54 37.9 °F 36.3 °F 30.04 in Calm   1.3 mph 93.8% 0.00 in 0 W/m2
03:59 38 °F 36 °F 30.04 in NNE 1 mph 3.8 mph 92.5% 0.00 in 0 W/m2
04:04 38.2 °F 36 °F 30.05 in SSE 0.2 mph 3.8 mph 91.5% 0.00 in 0 W/m2
04:09 37.9 °F 35.8 °F 30.05 in NNE 0.1 mph 1.8 mph 91.7% 0.00 in 0 W/m2
04:14 38 °F 36.1 °F 30.04 in NNE 0.3 mph 2 mph 92.6% 0.00 in 0 W/m2
04:19 37.7 °F 36.1 °F 30.04 in NNE 0.5 mph 2.9 mph 93.8% 0.00 in 0 W/m2
04:24 37.8 °F 36.1 °F 30.04 in ENE 0.5 mph 2.9 mph 93.4% 0.00 in 0 W/m2
04:29 37.6 °F 36.2 °F 30.04 in North 0.3 mph 2.2 mph 94.6% 0.00 in 0 W/m2
04:34 38.6 °F 35.6 °F 30.04 in NE 1 mph 3.8 mph 88.8% 0.00 in 0 W/m2
04:39 38.8 °F 36.1 °F 30.04 in SE 0.3 mph 2.7 mph 89.7% 0.00 in 0 W/m2
04:44 38.5 °F 36.4 °F 30.04 in North 0.4 mph 2.5 mph 92.3% 0.00 in 0 W/m2
04:49 38.8 °F 35.6 °F 30.04 in East 0.1 mph 2.5 mph 88.4% 0.00 in 0 W/m2
04:54 38.7 °F 36.3 °F 30.04 in ENE 0.4 mph 2.2 mph 90.9% 0.00 in 0 W/m2
04:59 38.9 °F 36 °F 30.04 in NE 1.2 mph 4 mph 89.2% 0.00 in 0 W/m2
05:04 39.3 °F 36.5 °F 30.03 in NNE 0.2 mph 4 mph 89.4% 0.00 in 0 W/m2
05:09 38.9 °F 36.7 °F 30.04 in Calm   1.3 mph 91.7% 0.00 in 0 W/m2
05:14 38.9 °F 36.7 °F 30.04 in North 0.7 mph 2 mph 91.6% 0.00 in 0 W/m2
05:19 39.7 °F 36.3 °F 30.05 in NNW 1 mph 2.7 mph 87.2% 0.00 in 0 W/m2
05:24 39.8 °F 36.2 °F 30.05 in North 0.2 mph 2.5 mph 87% 0.00 in 0 W/m2
05:29 39.5 °F 36.8 °F 30.05 in NE 0.2 mph 2.5 mph 90% 0.00 in 0 W/m2
05:34 39.5 °F 37 °F 30.05 in NNE 0.7 mph 2.2 mph 90.9% 0.00 in 0 W/m2
05:39 39.3 °F 37.5 °F 30.05 in NNE 0.1 mph 1.6 mph 93.4% 0.00 in 0 W/m2
05:44 39.2 °F 37.4 °F 30.05 in NE 0.4 mph 2 mph 93.4% 0.00 in 0 W/m2
05:49 39.2 °F 37.6 °F 30.05 in NE 0.3 mph 2.2 mph 93.7% 0.00 in 0 W/m2
05:54 39.4 °F 37.3 °F 30.05 in NE 0.8 mph 2.2 mph 91.9% 0.00 in 0 W/m2
05:59 39.7 °F 37.2 °F 30.05 in North 0.5 mph 2.2 mph 90.7% 0.00 in 0 W/m2
06:04 39.8 °F 37 °F 30.05 in North 0.6 mph 2.5 mph 89.5% 0.00 in 0 W/m2
06:09 39.8 °F 37.4 °F 30.05 in North 0.2 mph 2.2 mph 90.6% 0.00 in 0 W/m2
06:14 39.8 °F 37.8 °F 30.05 in North 0.4 mph 1.8 mph 92.6% 0.02 in 0 W/m2
06:19 39.6 °F 37.9 °F 30.05 in NE 1.1 mph 3.8 mph 93.2% 0.02 in 0 W/m2
06:24 39.6 °F 38 °F 30.05 in NE 0.7 mph 2.2 mph 94% 0.02 in 0 W/m2
06:29 39.7 °F 38.4 °F 30.05 in North 0.7 mph 3.1 mph 95% 0.00 in 0 W/m2
06:34 39.7 °F 38.5 °F 30.06 in NNE 0.3 mph 2.5 mph 95.2% 0.00 in 0 W/m2
06:39 39.7 °F 38.6 °F 30.06 in NNE 0.9 mph 2.7 mph 95.7% 0.00 in 0 W/m2
06:44 39.7 °F 38.7 °F 30.06 in NNE 0.8 mph 3.1 mph 96% 0.00 in 0 W/m2
06:49 39.8 °F 38.7 °F 30.06 in NNE 0.7 mph 3.1 mph 96% 0.00 in 0 W/m2
06:54 39.8 °F 39 °F 30.06 in North 0.9 mph 2.9 mph 96.9% 0.00 in 0 W/m2
06:59 39.8 °F 39.1 °F 30.06 in NNE 0.9 mph 2.2 mph 97% 0.00 in 0 W/m2
07:04 39.8 °F 39.1 °F 30.06 in NNE 1.4 mph 3.4 mph 97% 0.00 in 0 W/m2
07:09 39.9 °F 39.2 °F 30.06 in ENE 0.9 mph 3.4 mph 97% 0.00 in 0 W/m2
07:14 40 °F 39.3 °F 30.06 in NNE 1.1 mph 3.4 mph 97% 0.02 in 0 W/m2
07:19 40.1 °F 39.5 °F 30.06 in East 0.7 mph 2.2 mph 97.6% 0.02 in 0 W/m2
07:24 40.2 °F 39.7 °F 30.06 in NE 1.1 mph 2.2 mph 98% 0.02 in 0 W/m2
07:29 40.3 °F 39.7 °F 30.06 in NNE 0.4 mph 2 mph 98% 0.00 in 0 W/m2
07:34 40.4 °F 39.8 °F 30.07 in North 0.7 mph 2.7 mph 98% 0.02 in 0 W/m2
07:39 40.5 °F 39.9 °F 30.07 in East 0.7 mph 2.7 mph 98% 0.02 in 0 W/m2
07:44 40.6 °F 40 °F 30.07 in NNE 0.7 mph 3.4 mph 98% 0.02 in 0 W/m2
07:49 40.6 °F 40.1 °F 30.06 in NNE 0.9 mph 2.9 mph 98% 0.00 in 0 W/m2
07:54 40.6 °F 40.1 °F 30.06 in NNE 1.2 mph 4.5 mph 98% 0.00 in 0 W/m2
07:59 40.7 °F 40.2 °F 30.06 in NE 1.4 mph 4 mph 98% 0.00 in 5 W/m2
08:04 40.9 °F 40.4 °F 30.06 in WSW 0.9 mph 3.6 mph 98% 0.00 in 5 W/m2
08:09 41 °F 40.5 °F 30.06 in North 0.6 mph 2.2 mph 98% 0.02 in 5 W/m2
08:14 41.1 °F 40.5 °F 30.07 in SW 0.7 mph 3.4 mph 98% 0.02 in 4 W/m2
08:19 41.2 °F 40.6 °F 30.07 in NE 0.4 mph 2 mph 98% 0.02 in 5 W/m2
08:24 41.2 °F 40.6 °F 30.06 in NNE 1 mph 2.9 mph 98% 0.00 in 10 W/m2
08:29 41.2 °F 40.6 °F 30.06 in SE 0.4 mph 2.9 mph 98% 0.00 in 10 W/m2
08:34 41.4 °F 40.8 °F 30.07 in NNE 0.5 mph 2.9 mph 98% 0.00 in 10 W/m2
08:39 41.4 °F 40.9 °F 30.08 in East 1.1 mph 3.4 mph 98% 0.00 in 9 W/m2
08:44 41.6 °F 41 °F 30.07 in NNE 0.7 mph 3.4 mph 97.9% 0.00 in 10 W/m2
08:49 41.6 °F 41.1 °F 30.08 in NNW 0.5 mph 2.7 mph 97.9% 0.00 in 13 W/m2
08:54 41.6 °F 41.1 °F 30.07 in NNE 0.8 mph 2.7 mph 98% 0.00 in 12 W/m2
08:59 41.6 °F 41.1 °F 30.08 in NE 0.8 mph 3.1 mph 98% 0.00 in 15 W/m2
09:04 41.7 °F 41.2 °F 30.08 in NNE 1.1 mph 3.8 mph 98% 0.00 in 18 W/m2
09:09 41.9 °F 41.4 °F 30.08 in NNE 1 mph 3.8 mph 98% 0.00 in 16 W/m2
09:14 41.9 °F 41.4 °F 30.08 in NNE 0.3 mph 3.8 mph 98% 0.00 in 17 W/m2
09:19 42.1 °F 41.5 °F 30.08 in NE 0.7 mph 3.1 mph 98% 0.00 in 20 W/m2
09:24 42.1 °F 41.5 °F 30.08 in ENE 0.5 mph 2.7 mph 98% 0.00 in 24 W/m2
09:29 42.2 °F 41.6 °F 30.08 in NNE 0.5 mph 3.1 mph 98% 0.02 in 28 W/m2
09:34 42.4 °F 41.8 °F 30.08 in NE 0.4 mph 3.1 mph 98% 0.02 in 31 W/m2
09:39 42.6 °F 42.1 °F 30.08 in NNE 0.8 mph 2.7 mph 98.1% 0.02 in 32 W/m2
09:44 42.6 °F 42.2 °F 30.08 in NE 0.9 mph 2.5 mph 98.2% 0.00 in 26 W/m2
09:49 42.7 °F 42.2 °F 30.08 in East 0.5 mph 3.4 mph 98% 0.00 in 29 W/m2
09:54 42.7 °F 42.3 °F 30.09 in NE 1.2 mph 2.7 mph 98.3% 0.00 in 22 W/m2
09:59 42.8 °F 42.4 °F 30.09 in East 0.7 mph 2.7 mph 98.3% 0.00 in 17 W/m2
10:04 42.7 °F 42.2 °F 30.09 in East 0.5 mph 1.8 mph 98% 0.00 in 17 W/m2
10:09 42.7 °F 42.2 °F 30.09 in NE 1.3 mph 2.2 mph 98% 0.00 in 18 W/m2
10:14 42.7 °F 42.2 °F 30.09 in NNE 1.1 mph 2.9 mph 98% 0.00 in 20 W/m2
10:19 42.7 °F 42.2 °F 30.09 in NNE 1.5 mph 2.5 mph 98% 0.02 in 18 W/m2
10:24 42.8 °F 42.3 °F 30.09 in NE 1.7 mph 4 mph 98% 0.02 in 29 W/m2
10:29 42.9 °F 42.4 °F 30.09 in ENE 1.2 mph 4.3 mph 98.2% 0.02 in 39 W/m2
10:34 43 °F 42.5 °F 30.08 in East 1.3 mph 5.1 mph 98.1% 0.00 in 48 W/m2
10:39 43.1 °F 42.5 °F 30.08 in NE 1.7 mph 4.7 mph 98% 0.00 in 54 W/m2
10:44 43.2 °F 42.6 °F 30.08 in NE 1.9 mph 4.9 mph 98% 0.00 in 77 W/m2
10:49 43.4 °F 42.9 °F 30.08 in SE 0.6 mph 4.9 mph 98% 0.00 in 77 W/m2
10:54 43.8 °F 43.3 °F 30.08 in ESE 0.7 mph 2.7 mph 98% 0.00 in 72 W/m2
10:59 44 °F 43.3 °F 30.08 in South 1.6 mph 3.4 mph 97.1% 0.00 in 62 W/m2
11:04 44.1 °F 43.3 °F 30.08 in SSE 1.8 mph 4.7 mph 97.1% 0.00 in 73 W/m2
11:09 44.2 °F 43.6 °F 30.07 in NE 1 mph 4 mph 97.7% 0.00 in 82 W/m2
11:14 44.3 °F 43.6 °F 30.07 in East 2 mph 4.9 mph 97.1% 0.00 in 88 W/m2
11:19 44.4 °F 43.7 °F 30.07 in ESE 1 mph 4.9 mph 97% 0.00 in 83 W/m2
11:24 44.5 °F 43.8 °F 30.07 in ESE 1.1 mph 3.8 mph 97% 0.00 in 65 W/m2
11:29 44.7 °F 44 °F 30.07 in NW 0.4 mph 3.8 mph 97.1% 0.00 in 54 W/m2
11:34 44.8 °F 44.1 °F 30.08 in WNW 0.4 mph 2.9 mph 97% 0.00 in 43 W/m2
11:39 44.7 °F 44.1 °F 30.07 in NE 0.7 mph 2.2 mph 97.3% 0.00 in 38 W/m2
11:44 44.8 °F 44.1 °F 30.07 in ENE 0.4 mph 1.6 mph 97.7% 0.00 in 38 W/m2
11:49 44.8 °F 44.1 °F 30.07 in East 0.4 mph 2 mph 97.2% 0.00 in 40 W/m2
11:54 45 °F 44.3 °F 30.06 in NE 1.1 mph 3.6 mph 97.5% 0.00 in 53 W/m2
11:59 45.1 °F 44.5 °F 30.05 in NNE 1.6 mph 4.3 mph 97.8% 0.00 in 71 W/m2
12:04 45.3 °F 44.8 °F 30.05 in NE 1.8 mph 4.3 mph 97.9% 0.00 in 70 W/m2
12:09 45.5 °F 44.8 °F 30.05 in NE 0.6 mph 4 mph 97.4% 0.00 in 54 W/m2
12:14 45.6 °F 44.9 °F 30.05 in South 0.5 mph 2.2 mph 97.1% 0.00 in 55 W/m2
12:19 45.8 °F 45 °F 30.05 in East 1 mph 3.6 mph 97% 0.00 in 45 W/m2
12:24 45.9 °F 45.1 °F 30.05 in East 0.8 mph 4 mph 97.2% 0.00 in 56 W/m2
12:29 46 °F 45.2 °F 30.05 in NE 1.2 mph 4.7 mph 97% 0.07 in 66 W/m2
12:34 46 °F 45.3 °F 30.05 in SW 1 mph 4.7 mph 97.2% 0.07 in 48 W/m2
12:39 46.1 °F 45.5 °F 30.05 in NNE 0.8 mph 3.8 mph 97.5% 0.07 in 24 W/m2
12:44 46.1 °F 45.5 °F 30.05 in NE 0.2 mph 3.8 mph 97.5% 0.00 in 22 W/m2
12:49 46.1 °F 45.5 °F 30.05 in ESE 1.1 mph 3.1 mph 97.6% 0.00 in 34 W/m2
12:54 46.2 °F 45.7 °F 30.04 in NE 0.7 mph 3.8 mph 98% 0.02 in 106 W/m2
12:59 46.6 °F 46 °F 30.04 in NNE 1.2 mph 2.9 mph 97.9% 0.05 in 120 W/m2
13:04 46.9 °F 46.3 °F 30.04 in NE 0.7 mph 2.7 mph 97.9% 0.05 in 87 W/m2
13:09 47 °F 46.3 °F 30.04 in WSW 0.1 mph 2.7 mph 97.1% 0.05 in 62 W/m2
13:14 47 °F 46.4 °F 30.05 in North 0.8 mph 2.9 mph 97.5% 0.02 in 43 W/m2
13:19 47 °F 46.5 °F 30.04 in NNE 1.3 mph 2.2 mph 98% 0.00 in 34 W/m2
13:24 47 °F 46.5 °F 30.03 in SE 0.9 mph 3.4 mph 98% 0.00 in 35 W/m2
13:29 47.2 °F 46.7 °F 30.03 in North 1 mph 2.7 mph 98% 0.00 in 24 W/m2
13:34 47.2 °F 46.7 °F 30.03 in ENE 1.5 mph 3.4 mph 98% 0.02 in 45 W/m2
13:39 47.3 °F 46.7 °F 30.04 in North 0.4 mph 3.4 mph 98% 0.14 in 17 W/m2
13:44 47.2 °F 46.7 °F 30.04 in NE 0.9 mph 2.5 mph 98% 0.19 in 29 W/m2
13:49 47.3 °F 46.8 °F 30.03 in NNE 0.5 mph 2.5 mph 98% 0.19 in 32 W/m2
13:54 47.4 °F 47 °F 30.04 in NNE 0.2 mph 1.3 mph 98.4% 0.07 in 18 W/m2
13:59 47.5 °F 47.3 °F 30.04 in NNE 0.1 mph 1.6 mph 99% 0.00 in 21 W/m2
14:04 47.5 °F 47.3 °F 30.03 in Calm   1.3 mph 99% 0.00 in 22 W/m2
14:09 47.5 °F 47.3 °F 30.03 in NE 0.4 mph 1.6 mph 99% 0.00 in 28 W/m2
14:14 47.6 °F 47.4 °F 30.04 in Calm   1.8 mph 98.9% 0.00 in 28 W/m2
14:19 47.7 °F 47.5 °F 30.03 in NNE 0.4 mph 1.8 mph 98.8% 0.02 in 23 W/m2
14:24 47.7 °F 47.4 °F 30.03 in NNE 0.7 mph 2 mph 98.6% 0.02 in 17 W/m2
14:29 47.8 °F 47.3 °F 30.03 in NNE 0.9 mph 2.2 mph 98.2% 0.02 in 22 W/m2
14:34 47.8 °F 47.5 °F 30.04 in NNE 0.2 mph 1.8 mph 98.6% 0.00 in 24 W/m2
14:39 47.9 °F 47.6 °F 30.04 in NNE 0.3 mph 1.8 mph 98.5% 0.00 in 24 W/m2
14:44 47.9 °F 47.8 °F 30.03 in NNE 0.1 mph 1.6 mph 99% 0.00 in 28 W/m2
14:49 48.1 °F 47.9 °F 30.03 in Calm   1.6 mph 99% 0.00 in 31 W/m2
14:54 48 °F 47.8 °F 30.03 in NNE 0.2 mph 1.6 mph 99% 0.02 in 29 W/m2
14:59 48 °F 47.8 °F 30.03 in NE 0.3 mph 1.8 mph 99% 0.02 in 23 W/m2
15:04 48 °F 47.9 °F 30.03 in NNE 0.3 mph 2.2 mph 99% 0.02 in 20 W/m2
15:09 48 °F 47.8 °F 30.03 in NNE 1.1 mph 3.1 mph 99% 0.00 in 18 W/m2
15:14 48.1 °F 47.9 °F 30.03 in NNE 0.6 mph 3.1 mph 99% 0.00 in 18 W/m2
15:19 48 °F 47.8 °F 30.02 in NNE 0.9 mph 2.5 mph 99% 0.00 in 15 W/m2
15:24 48 °F 47.8 °F 30.02 in NNE 0.9 mph 2.9 mph 99% 0.00 in 18 W/m2
15:29 48 °F 47.8 °F 30.02 in NNE 0.8 mph 3.8 mph 99% 0.00 in 18 W/m2
15:34 47.9 °F 47.8 °F 30.03 in NE 0.9 mph 3.8 mph 99% 0.00 in 12 W/m2
15:39 47.9 °F 47.7 °F 30.02 in NNE 1.1 mph 3.1 mph 99% 0.00 in 5 W/m2
15:44 47.8 °F 47.6 °F 30.02 in NNE 1.1 mph 3.1 mph 98.9% 0.00 in 5 W/m2
15:49 47.8 °F 47.6 °F 30.03 in NNE 1.2 mph 2.7 mph 99% 0.00 in 4 W/m2
15:54 47.8 °F 47.6 °F 30.03 in ENE 0.3 mph 2.2 mph 99% 0.00 in 4 W/m2
15:59 47.7 °F 47.6 °F 30.02 in NNE 0.5 mph 2.2 mph 99% 0.00 in 4 W/m2
16:04 47.7 °F 47.5 °F 30.02 in NNE 1 mph 3.8 mph 99% 0.00 in 5 W/m2
16:09 47.7 °F 47.5 °F 30.02 in North 1.1 mph 3.8 mph 99% 0.02 in 9 W/m2
16:14 47.7 °F 47.5 °F 30.02 in North 1 mph 2.7 mph 99% 0.02 in 4 W/m2
16:19 47.7 °F 47.5 °F 30.03 in Calm   2.2 mph 99% 0.02 in 0 W/m2
16:24 47.7 °F 47.5 °F 30.03 in NNE 0.4 mph 2.2 mph 99% 0.02 in 0 W/m2
16:29 47.7 °F 47.5 °F 30.03 in NNE 1 mph 2.7 mph 99% 0.05 in 0 W/m2
16:34 47.7 °F 47.5 °F 30.03 in NNE 1.1 mph 2.7 mph 99% 0.07 in 2 W/m2
16:39 47.6 °F 47.5 °F 30.04 in NNE 0.7 mph 2.5 mph 99% 0.05 in 0 W/m2
16:44 47.7 °F 47.5 °F 30.03 in Calm   1.8 mph 99% 0.05 in 0 W/m2
16:49 47.7 °F 47.5 °F 30.02 in NNE 0.3 mph 1.3 mph 99% 0.02 in 0 W/m2
16:54 47.7 °F 47.5 °F 30.03 in NNE 0.1 mph 1.3 mph 99% 0.00 in 0 W/m2
16:59 47.7 °F 47.5 °F 30.03 in Calm   1.3 mph 99% 0.00 in 0 W/m2
17:04 47.6 °F 47.4 °F 30.02 in SSW 0.2 mph 1.8 mph 99% 0.00 in 0 W/m2
17:09 47.6 °F 47.4 °F 30.03 in NNE 0.6 mph 2.2 mph 99% 0.17 in 0 W/m2
17:14 47.5 °F 47.3 °F 30.02 in North 1.1 mph 2.5 mph 99% 0.17 in 0 W/m2
17:19 47.4 °F 47.2 °F 30.02 in NNE 0.9 mph 2.2 mph 99% 0.17 in 0 W/m2
17:24 47.5 °F 47.3 °F 30.02 in NNE 0.1 mph 1.6 mph 99% 0.00 in 0 W/m2
17:29 47.5 °F 47.3 °F 30.02 in North 0.5 mph 1.3 mph 99% 0.00 in 0 W/m2
17:34 47.5 °F 47.3 °F 30.02 in NNE 0.3 mph 1.8 mph 99% 0.02 in 0 W/m2
17:39 47.5 °F 47.3 °F 30.02 in Calm   1.3 mph 99% 0.02 in 0 W/m2
17:44 47.5 °F 47.3 °F 30.03 in Calm   1.3 mph 99% 0.02 in 0 W/m2
17:49 47.6 °F 47.4 °F 30.03 in NNE 0.2 mph 1.3 mph 99% 0.02 in 0 W/m2
17:54 47.5 °F 47.3 °F 30.03 in Calm     99% 0.02 in 0 W/m2
17:59 47.5 °F 47.3 °F 30.03 in Calm     99% 0.02 in 0 W/m2
18:04 47.5 °F 47.3 °F 30.03 in NNE 0.2 mph 1.8 mph 99% 0.07 in 0 W/m2
18:09 47.7 °F 47.5 °F 30.03 in NNE 0.1 mph 1.6 mph 99% 0.09 in 0 W/m2
18:14 47.7 °F 47.5 °F 30.03 in Calm   1.1 mph 99% 0.07 in 0 W/m2
18:19 47.7 °F 47.5 °F 30.03 in NNE 0.3 mph 1.8 mph 99% 0.05 in 0 W/m2
18:24 47.7 °F 47.5 °F 30.03 in NNE 0.3 mph 1.8 mph 99% 0.02 in 0 W/m2
18:29 47.7 °F 47.6 °F 30.03 in NNE 0.2 mph 1.6 mph 99% 0.05 in 0 W/m2
18:34 47.7 °F 47.5 °F 30.03 in NNE 0.6 mph 1.8 mph 99% 0.02 in 0 W/m2
18:39 47.6 °F 47.4 °F 30.03 in Calm   1.6 mph 99% 0.00 in 0 W/m2
18:44 47.5 °F 47.3 °F 30.03 in NE 0.2 mph 1.6 mph 99% 0.00 in 0 W/m2
18:49 47.7 °F 47.5 °F 30.03 in NNW 0.2 mph 2 mph 99% 0.00 in 0 W/m2
18:54 47.8 °F 47.7 °F 30.03 in Calm   1.1 mph 99% 0.02 in 0 W/m2
18:59 47.7 °F 47.5 °F 30.03 in Calm   1.1 mph 99% 0.02 in 0 W/m2
19:04 47.6 °F 47.4 °F 30.03 in Calm     99% 0.02 in 0 W/m2
19:09 47.7 °F 47.5 °F 30.04 in North 0.4 mph 2 mph 99% 0.00 in 0 W/m2
19:14 47.8 °F 47.7 °F 30.04 in Calm   1.1 mph 99% 0.00 in 0 W/m2
19:19 47.9 °F 47.8 °F 30.04 in Calm   1.1 mph 99% 0.00 in 0 W/m2
19:24 47.9 °F 47.8 °F 30.04 in Calm   1.3 mph 99% 0.00 in 0 W/m2
19:29 47.9 °F 47.7 °F 30.04 in Calm   1.1 mph 99% 0.00 in 0 W/m2
19:34 47.8 °F 47.7 °F 30.04 in ENE 0.1 mph 1.1 mph 99% 0.00 in 0 W/m2
19:39 47.9 °F 47.8 °F 30.03 in North 0.5 mph 2 mph 99% 0.00 in 0 W/m2
19:44 47.9 °F 47.8 °F 30.04 in NNE 0.5 mph 2.2 mph 99% 0.00 in 0 W/m2
19:49 48.2 °F 48 °F 30.03 in NNE 0.7 mph 2.9 mph 99% 0.00 in 0 W/m2
19:54 48.6 °F 48.4 °F 30.02 in North 0.4 mph 2.9 mph 99% 0.00 in 0 W/m2
19:59 48.6 °F 48.5 °F 30.03 in North 0.2 mph 1.8 mph 99% 0.00 in 0 W/m2
20:04 48.7 °F 48.5 °F 30.04 in NE 0.3 mph 2 mph 99% 0.00 in 0 W/m2
20:09 48.6 °F 48.4 °F 30.04 in Calm   2 mph 99% 0.00 in 0 W/m2
20:14 48.1 °F 47.9 °F 30.04 in South 0.3 mph 1.8 mph 99% 0.00 in 0 W/m2
20:19 47.9 °F 47.8 °F 30.05 in Calm     99% 0.00 in 0 W/m2
20:24 48.1 °F 47.9 °F 30.05 in Calm   1.3 mph 99% 0.00 in 0 W/m2
20:29 48.2 °F 48 °F 30.04 in ESE 0.1 mph 1.1 mph 99% 0.00 in 0 W/m2
20:34 48.1 °F 47.9 °F 30.05 in Calm   1.3 mph 99% 0.00 in 0 W/m2
20:39 48.3 °F 48.1 °F 30.04 in ENE 0.1 mph 1.1 mph 99% 0.00 in 0 W/m2
20:44 48.4 °F 48.2 °F 30.03 in NNE 0.5 mph 2 mph 99% 0.00 in 0 W/m2
20:49 48.4 °F 48.2 °F 30.03 in East 0.2 mph 2 mph 99% 0.00 in 0 W/m2
20:54 48.6 °F 48.4 °F 30.03 in North 0.1 mph 2.2 mph 99% 0.00 in 0 W/m2
20:59 48.6 °F 48.4 °F 30.04 in NNE 0.2 mph 1.3 mph 99% 0.00 in 0 W/m2
21:04 48.4 °F 48.2 °F 30.04 in South 0.1 mph 1.6 mph 99% 0.00 in 0 W/m2
21:09 48.1 °F 47.9 °F 30.04 in Calm   1.1 mph 99% 0.00 in 0 W/m2
21:14 48.3 °F 48.1 °F 30.04 in NNE 0.1 mph 1.8 mph 99% 0.00 in 0 W/m2
21:19 48.6 °F 48.4 °F 30.04 in NNE 0.2 mph 2 mph 99% 0.00 in 0 W/m2
21:24 49 °F 48.9 °F 30.04 in WNW 0.5 mph 2.7 mph 99% 0.02 in 0 W/m2
21:29 49.2 °F 49 °F 30.04 in NW 0.2 mph 1.6 mph 99% 0.02 in 0 W/m2
21:34 48.6 °F 48.5 °F 30.04 in NE 0.3 mph 1.3 mph 99% 0.02 in 0 W/m2
21:39 48.7 °F 48.5 °F 30.05 in NNE 0.1 mph 1.1 mph 99% 0.00 in 0 W/m2
21:44 49.6 °F 49.4 °F 30.04 in NNE 0.5 mph 1.8 mph 99% 0.00 in 0 W/m2
21:49 49.8 °F 49.5 °F 30.05 in SE 0.3 mph 2 mph 99% 0.00 in 0 W/m2
Monroeville, Pennsylvania, USA
Compliments of Weather Underground - 4 mb